Mount Vernon, WA

4:59 PM PDT on October 24, 2014 (GMT -0700)
Maddox Creek | Change Station
CLOSE
Current Station
Personal Weather Station
Location: Mount Vernon, WA
Elevation: 404 ft
Nearby Weather Stations

Elev 404 ft 48.41 °N, 122.30 °W | Updated 30 seconds ago

Clear
Clear
55.0 °F
Feels Like 55.0 °F
N
0.0
Wind Variable Wind from NW
Gusts 0.0 mph

Today
High -- | Low -- °F
--% Chance of Precip.
Yesterday
High -- | Low -- °F
Precip. -- in
7:42 AM 6:03 PM
New Moon, 1% visible
Pressure 29.94 in
Visibility 10.0 miles
Clouds Scattered Clouds 3500 ft
Mostly Cloudy 12000 ft
Overcast 24000 ft
Dew Point 47 °F
Humidity 73%
Rainfall 0.00 in
Snow Depth Not available.
UV 0 out of 12
Pollen .40 out of 12
PM2.5 Good
Flu Activity Sporadic
METAR KNUW 242356Z 34004KT 10SM SCT035 BKN120 OVC240 13/08 A2993 RMK AO2 SLP138 T01280083 10156 20122 58025 $

More Conditions Fewer Conditions

Pressure 29.94 in
Visibility 10.0 miles
Clouds Scattered Clouds 3500 ft
Mostly Cloudy 12000 ft
Overcast 24000 ft
Dew Point 47 °F
Humidity 73%
Rainfall 0.00 in
Snow Depth Not available.
UV 0 out of 12
Pollen .40 out of 12
PM2.5 Good
Flu Activity Sporadic
METAR KNUW 242356Z 34004KT 10SM SCT035 BKN120 OVC240 13/08 A2993 RMK AO2 SLP138 T01280083 10156 20122 58025 $

More Conditions Fewer Conditions

10-Day Weather Forecast

Almanac

Astronomy

Oct. 24, 2014 Rise Set
Actual Time 7:42 AM PDT 6:03 PM PDT
Civil Twilight 7:10 AM PDT 6:35 PM PDT
Nautical Twilight 6:34 AM PDT 7:11 PM PDT
Astronomical Twilight 5:58 AM PDT 7:47 PM PDT
Moon 8:30 AM PDT 6:42 PM PDT
Length of Visible Light 11h 24m
Length of Day
10h 20m
Tomorrow will be 3m 19s shorter.
New Moon, 1% of the Moon is Illuminated
Today
New Moon
Oct 30
First Quarter
Nov 6
Full
Nov 14
Last Quarter
Nov 22
New

Today's Extremes

State Highs State Lows

Community

WunderPhotos

Upload Photos

1,764,713 photos uploaded!

Nearby

Air Quality

  Air Quality AQ Index Pollutant
Yesterday Good
OZONE
Yesterday Good
PM2.5
Current Good
PM2.5
Friday Good
OZONE
Friday Good
PM2.5
Saturday Good
OZONE
Saturday Good
PM2.5
Sunday Good
OZONE
Sunday Good
PM2.5
Monday Good
OZONE
Monday Good
PM2.5
Tuesday Good
OZONE
Tuesday Good
PM2.5

Snow Depth

Station Depth Elevation
Elbow Lake 0 in 3200 ft
Mf Nooksack 0 in 4980 ft
Wells Creek 0 in 4200 ft
Dungeness 0 in 4100 ft
Alpine Meadows 0 in 3500 ft

Earthquake Activity

City Distance Mag. Time & Date
Birch Bay, Washington 36 miles 2.8 3:02 AM PDT
2014-10-24
Minimum magnitude displayed is 2.5.

Coastal Water Temperatures

Place Temperature
Port Townsend, WA 52.0 °F
Friday Harbor, WA 51.1 °F
Port Angeles, WA 57.0 °F

Nearby Weather Stations